sensor_id;sensor_type;location;lat;lon;timestamp;temperature;humidity
78731;SHT31;68055;51.978;5.658;2023-11-25T00:01:13;6.5;69.8
78731;SHT31;68055;51.978;5.658;2023-11-25T00:03:41;6.5;69.7
78731;SHT31;68055;51.978;5.658;2023-11-25T00:06:10;6.5;70.0
78731;SHT31;68055;51.978;5.658;2023-11-25T00:08:38;6.5;69.8
78731;SHT31;68055;51.978;5.658;2023-11-25T00:11:07;6.4;70.0
78731;SHT31;68055;51.978;5.658;2023-11-25T00:13:36;6.4;69.7
78731;SHT31;68055;51.978;5.658;2023-11-25T00:16:07;6.4;70.0
78731;SHT31;68055;51.978;5.658;2023-11-25T00:18:36;6.4;70.3
78731;SHT31;68055;51.978;5.658;2023-11-25T00:21:05;6.4;70.2
78731;SHT31;68055;51.978;5.658;2023-11-25T00:23:33;6.4;70.0
78731;SHT31;68055;51.978;5.658;2023-11-25T00:26:02;6.4;70.0
78731;SHT31;68055;51.978;5.658;2023-11-25T00:28:30;6.4;70.0
78731;SHT31;68055;51.978;5.658;2023-11-25T00:30:59;6.4;69.9
78731;SHT31;68055;51.978;5.658;2023-11-25T00:33:28;6.4;70.1
78731;SHT31;68055;51.978;5.658;2023-11-25T00:35:58;6.4;70.1
78731;SHT31;68055;51.978;5.658;2023-11-25T00:38:27;6.4;69.6
78731;SHT31;68055;51.978;5.658;2023-11-25T00:40:55;6.3;69.9
78731;SHT31;68055;51.978;5.658;2023-11-25T00:43:24;6.3;70.2
78731;SHT31;68055;51.978;5.658;2023-11-25T00:45:54;6.3;70.2
78731;SHT31;68055;51.978;5.658;2023-11-25T00:48:22;6.3;70.3
78731;SHT31;68055;51.978;5.658;2023-11-25T00:50:52;6.3;70.4
78731;SHT31;68055;51.978;5.658;2023-11-25T00:53:20;6.3;70.5
78731;SHT31;68055;51.978;5.658;2023-11-25T00:55:49;6.3;70.7
78731;SHT31;68055;51.978;5.658;2023-11-25T00:58:18;6.3;70.8
78731;SHT31;68055;51.978;5.658;2023-11-25T01:00:47;6.3;70.6
78731;SHT31;68055;51.978;5.658;2023-11-25T01:03:16;6.3;70.4
78731;SHT31;68055;51.978;5.658;2023-11-25T01:05:44;6.3;70.5
78731;SHT31;68055;51.978;5.658;2023-11-25T01:08:13;6.3;70.4
78731;SHT31;68055;51.978;5.658;2023-11-25T01:10:42;6.3;70.9
78731;SHT31;68055;51.978;5.658;2023-11-25T01:13:11;6.3;70.8
78731;SHT31;68055;51.978;5.658;2023-11-25T01:15:40;6.3;70.9
78731;SHT31;68055;51.978;5.658;2023-11-25T01:18:08;6.3;70.9
78731;SHT31;68055;51.978;5.658;2023-11-25T01:20:37;6.3;71.2
78731;SHT31;68055;51.978;5.658;2023-11-25T01:23:05;6.3;71.2
78731;SHT31;68055;51.978;5.658;2023-11-25T01:25:34;6.4;70.9
78731;SHT31;68055;51.978;5.658;2023-11-25T01:28:02;6.4;71.4
78731;SHT31;68055;51.978;5.658;2023-11-25T01:30:32;6.4;71.6
78731;SHT31;68055;51.978;5.658;2023-11-25T01:33:06;6.4;71.5
78731;SHT31;68055;51.978;5.658;2023-11-25T01:35:36;6.4;71.9
78731;SHT31;68055;51.978;5.658;2023-11-25T01:38:05;6.4;71.8
78731;SHT31;68055;51.978;5.658;2023-11-25T01:40:35;6.4;72.0
78731;SHT31;68055;51.978;5.658;2023-11-25T01:43:10;6.4;71.8
78731;SHT31;68055;51.978;5.658;2023-11-25T01:45:40;6.4;71.7
78731;SHT31;68055;51.978;5.658;2023-11-25T01:48:11;6.5;72.1
78731;SHT31;68055;51.978;5.658;2023-11-25T01:50:45;6.5;72.2
78731;SHT31;68055;51.978;5.658;2023-11-25T01:53:14;6.5;72.3
78731;SHT31;68055;51.978;5.658;2023-11-25T01:55:46;6.6;73.1
78731;SHT31;68055;51.978;5.658;2023-11-25T01:58:18;6.6;72.5
78731;SHT31;68055;51.978;5.658;2023-11-25T02:00:48;6.6;72.8
78731;SHT31;68055;51.978;5.658;2023-11-25T02:03:17;6.6;72.9
78731;SHT31;68055;51.978;5.658;2023-11-25T02:05:46;6.6;73.2
78731;SHT31;68055;51.978;5.658;2023-11-25T02:08:15;6.6;73.3
78731;SHT31;68055;51.978;5.658;2023-11-25T02:10:43;6.7;73.3
78731;SHT31;68055;51.978;5.658;2023-11-25T02:13:12;6.7;73.4
78731;SHT31;68055;51.978;5.658;2023-11-25T02:15:41;6.7;73.5
78731;SHT31;68055;51.978;5.658;2023-11-25T02:18:10;6.7;73.6
78731;SHT31;68055;51.978;5.658;2023-11-25T02:20:40;6.7;73.6
78731;SHT31;68055;51.978;5.658;2023-11-25T02:23:18;6.7;73.5
78731;SHT31;68055;51.978;5.658;2023-11-25T02:25:50;6.7;72.9
78731;SHT31;68055;51.978;5.658;2023-11-25T02:28:19;6.7;73.0
78731;SHT31;68055;51.978;5.658;2023-11-25T02:30:49;6.8;72.8
78731;SHT31;68055;51.978;5.658;2023-11-25T02:33:18;6.8;72.3
78731;SHT31;68055;51.978;5.658;2023-11-25T02:35:48;6.8;72.0
78731;SHT31;68055;51.978;5.658;2023-11-25T02:38:18;6.8;72.1
78731;SHT31;68055;51.978;5.658;2023-11-25T02:40:47;6.8;71.6
78731;SHT31;68055;51.978;5.658;2023-11-25T02:43:17;6.8;71.1
78731;SHT31;68055;51.978;5.658;2023-11-25T02:45:48;6.8;71.2
78731;SHT31;68055;51.978;5.658;2023-11-25T02:48:16;6.8;70.9
78731;SHT31;68055;51.978;5.658;2023-11-25T02:50:46;6.7;70.7
78731;SHT31;68055;51.978;5.658;2023-11-25T02:53:17;6.7;70.9
78731;SHT31;68055;51.978;5.658;2023-11-25T02:55:46;6.7;70.9
78731;SHT31;68055;51.978;5.658;2023-11-25T02:58:16;6.7;70.8
78731;SHT31;68055;51.978;5.658;2023-11-25T03:00:46;6.7;70.6
78731;SHT31;68055;51.978;5.658;2023-11-25T03:03:16;6.7;70.7
78731;SHT31;68055;51.978;5.658;2023-11-25T03:05:49;6.7;70.6
78731;SHT31;68055;51.978;5.658;2023-11-25T03:08:20;6.6;70.4
78731;SHT31;68055;51.978;5.658;2023-11-25T03:10:49;6.6;70.5
78731;SHT31;68055;51.978;5.658;2023-11-25T03:13:18;6.6;70.5
78731;SHT31;68055;51.978;5.658;2023-11-25T03:15:46;6.6;70.5
78731;SHT31;68055;51.978;5.658;2023-11-25T03:18:15;6.5;70.5
78731;SHT31;68055;51.978;5.658;2023-11-25T03:20:43;6.5;70.7
78731;SHT31;68055;51.978;5.658;2023-11-25T03:23:14;6.5;70.5
78731;SHT31;68055;51.978;5.658;2023-11-25T03:25:43;6.5;70.5
78731;SHT31;68055;51.978;5.658;2023-11-25T03:28:12;6.5;70.5
78731;SHT31;68055;51.978;5.658;2023-11-25T03:30:43;6.4;70.5
78731;SHT31;68055;51.978;5.658;2023-11-25T03:33:12;6.4;70.4
78731;SHT31;68055;51.978;5.658;2023-11-25T03:35:43;6.4;70.6
78731;SHT31;68055;51.978;5.658;2023-11-25T03:38:11;6.4;70.8
78731;SHT31;68055;51.978;5.658;2023-11-25T03:40:40;6.4;70.5
78731;SHT31;68055;51.978;5.658;2023-11-25T03:43:10;6.4;70.5
78731;SHT31;68055;51.978;5.658;2023-11-25T03:45:40;6.4;70.3
78731;SHT31;68055;51.978;5.658;2023-11-25T03:48:11;6.3;70.8
78731;SHT31;68055;51.978;5.658;2023-11-25T03:50:40;6.3;70.8
78731;SHT31;68055;51.978;5.658;2023-11-25T03:53:09;6.3;70.7
78731;SHT31;68055;51.978;5.658;2023-11-25T03:55:39;6.3;70.6
78731;SHT31;68055;51.978;5.658;2023-11-25T03:58:08;6.3;71.0
78731;SHT31;68055;51.978;5.658;2023-11-25T04:00:37;6.3;71.1
78731;SHT31;68055;51.978;5.658;2023-11-25T04:03:06;6.3;71.2
78731;SHT31;68055;51.978;5.658;2023-11-25T04:05:35;6.4;70.9
78731;SHT31;68055;51.978;5.658;2023-11-25T04:08:04;6.4;70.8
78731;SHT31;68055;51.978;5.658;2023-11-25T04:10:32;6.4;71.2
78731;SHT31;68055;51.978;5.658;2023-11-25T04:13:05;6.4;71.2
78731;SHT31;68055;51.978;5.658;2023-11-25T04:15:35;6.5;70.7
78731;SHT31;68055;51.978;5.658;2023-11-25T04:18:04;6.5;70.9
78731;SHT31;68055;51.978;5.658;2023-11-25T04:20:33;6.5;70.4
78731;SHT31;68055;51.978;5.658;2023-11-25T04:23:01;6.5;71.1
78731;SHT31;68055;51.978;5.658;2023-11-25T04:25:33;6.5;71.2
78731;SHT31;68055;51.978;5.658;2023-11-25T04:28:03;6.5;70.9
78731;SHT31;68055;51.978;5.658;2023-11-25T04:30:32;6.6;71.0
78731;SHT31;68055;51.978;5.658;2023-11-25T04:33:01;6.6;70.7
78731;SHT31;68055;51.978;5.658;2023-11-25T04:35:30;6.6;70.6
78731;SHT31;68055;51.978;5.658;2023-11-25T04:37:58;6.6;70.8
78731;SHT31;68055;51.978;5.658;2023-11-25T04:40:28;6.6;71.1
78731;SHT31;68055;51.978;5.658;2023-11-25T04:42:57;6.6;71.1
78731;SHT31;68055;51.978;5.658;2023-11-25T04:45:26;6.7;71.3
78731;SHT31;68055;51.978;5.658;2023-11-25T04:47:55;6.7;71.5
78731;SHT31;68055;51.978;5.658;2023-11-25T04:50:24;6.7;71.3
78731;SHT31;68055;51.978;5.658;2023-11-25T04:52:53;6.7;71.6
78731;SHT31;68055;51.978;5.658;2023-11-25T04:55:22;6.7;71.7
78731;SHT31;68055;51.978;5.658;2023-11-25T04:57:53;6.8;71.5
78731;SHT31;68055;51.978;5.658;2023-11-25T05:00:22;6.8;71.8
78731;SHT31;68055;51.978;5.658;2023-11-25T05:02:51;6.8;71.8
78731;SHT31;68055;51.978;5.658;2023-11-25T05:05:19;6.8;71.9
78731;SHT31;68055;51.978;5.658;2023-11-25T05:07:49;6.8;72.1
78731;SHT31;68055;51.978;5.658;2023-11-25T05:10:18;6.9;72.4
78731;SHT31;68055;51.978;5.658;2023-11-25T05:12:48;6.9;72.0
78731;SHT31;68055;51.978;5.658;2023-11-25T05:15:20;6.9;71.7
78731;SHT31;68055;51.978;5.658;2023-11-25T05:17:52;7.0;71.5
78731;SHT31;68055;51.978;5.658;2023-11-25T05:20:21;7.0;71.6
78731;SHT31;68055;51.978;5.658;2023-11-25T05:22:51;7.0;71.6
78731;SHT31;68055;51.978;5.658;2023-11-25T05:25:20;7.0;71.2
78731;SHT31;68055;51.978;5.658;2023-11-25T05:27:48;7.0;71.2
78731;SHT31;68055;51.978;5.658;2023-11-25T05:30:17;7.0;71.0
78731;SHT31;68055;51.978;5.658;2023-11-25T05:32:46;7.1;70.8
78731;SHT31;68055;51.978;5.658;2023-11-25T05:35:14;7.0;70.7
78731;SHT31;68055;51.978;5.658;2023-11-25T05:37:43;7.0;71.1
78731;SHT31;68055;51.978;5.658;2023-11-25T05:40:13;7.0;71.0
78731;SHT31;68055;51.978;5.658;2023-11-25T05:42:42;7.0;71.0
78731;SHT31;68055;51.978;5.658;2023-11-25T05:45:14;7.0;70.7
78731;SHT31;68055;51.978;5.658;2023-11-25T05:47:44;7.0;70.8
78731;SHT31;68055;51.978;5.658;2023-11-25T05:50:16;7.0;70.8
78731;SHT31;68055;51.978;5.658;2023-11-25T05:52:46;7.0;71.1
78731;SHT31;68055;51.978;5.658;2023-11-25T05:55:15;7.0;70.9
78731;SHT31;68055;51.978;5.658;2023-11-25T05:57:46;7.0;70.8
78731;SHT31;68055;51.978;5.658;2023-11-25T06:00:17;7.0;70.6
78731;SHT31;68055;51.978;5.658;2023-11-25T06:02:47;7.0;70.4
78731;SHT31;68055;51.978;5.658;2023-11-25T06:05:15;7.0;70.4
78731;SHT31;68055;51.978;5.658;2023-11-25T06:07:44;7.0;70.6
78731;SHT31;68055;51.978;5.658;2023-11-25T06:10:14;7.0;70.6
78731;SHT31;68055;51.978;5.658;2023-11-25T06:12:42;7.0;70.6
78731;SHT31;68055;51.978;5.658;2023-11-25T06:15:13;7.0;70.5
78731;SHT31;68055;51.978;5.658;2023-11-25T06:17:42;6.9;70.0
78731;SHT31;68055;51.978;5.658;2023-11-25T06:20:12;6.9;70.6
78731;SHT31;68055;51.978;5.658;2023-11-25T06:22:41;6.9;70.4
78731;SHT31;68055;51.978;5.658;2023-11-25T06:25:10;6.9;70.3
78731;SHT31;68055;51.978;5.658;2023-11-25T06:27:40;6.9;70.8
78731;SHT31;68055;51.978;5.658;2023-11-25T06:30:09;6.9;71.0
78731;SHT31;68055;51.978;5.658;2023-11-25T06:32:39;6.9;71.1
78731;SHT31;68055;51.978;5.658;2023-11-25T06:35:07;6.8;71.5
78731;SHT31;68055;51.978;5.658;2023-11-25T06:37:39;6.8;71.2
78731;SHT31;68055;51.978;5.658;2023-11-25T06:40:08;6.8;70.8
78731;SHT31;68055;51.978;5.658;2023-11-25T06:42:41;6.8;70.8
78731;SHT31;68055;51.978;5.658;2023-11-25T06:45:11;6.8;70.7
78731;SHT31;68055;51.978;5.658;2023-11-25T06:47:41;6.8;71.0
78731;SHT31;68055;51.978;5.658;2023-11-25T06:50:11;6.8;71.1
78731;SHT31;68055;51.978;5.658;2023-11-25T06:52:40;6.8;71.4
78731;SHT31;68055;51.978;5.658;2023-11-25T06:55:09;6.9;71.6
78731;SHT31;68055;51.978;5.658;2023-11-25T06:57:38;6.9;71.7
78731;SHT31;68055;51.978;5.658;2023-11-25T07:00:08;6.9;72.0
78731;SHT31;68055;51.978;5.658;2023-11-25T07:02:37;6.9;72.3
78731;SHT31;68055;51.978;5.658;2023-11-25T07:05:07;6.9;72.6
78731;SHT31;68055;51.978;5.658;2023-11-25T07:07:37;6.9;72.9
78731;SHT31;68055;51.978;5.658;2023-11-25T07:10:07;6.9;72.9
78731;SHT31;68055;51.978;5.658;2023-11-25T07:12:41;6.9;72.4
78731;SHT31;68055;51.978;5.658;2023-11-25T07:15:10;7.0;72.4
78731;SHT31;68055;51.978;5.658;2023-11-25T07:17:40;7.0;72.0
78731;SHT31;68055;51.978;5.658;2023-11-25T07:20:09;7.0;72.0
78731;SHT31;68055;51.978;5.658;2023-11-25T07:22:45;7.0;72.2
78731;SHT31;68055;51.978;5.658;2023-11-25T07:25:15;7.0;72.2
78731;SHT31;68055;51.978;5.658;2023-11-25T07:27:45;7.0;72.3
78731;SHT31;68055;51.978;5.658;2023-11-25T07:30:15;7.1;72.0
78731;SHT31;68055;51.978;5.658;2023-11-25T07:32:44;7.1;71.2
78731;SHT31;68055;51.978;5.658;2023-11-25T07:35:12;7.1;71.5
78731;SHT31;68055;51.978;5.658;2023-11-25T07:37:41;7.1;71.4
78731;SHT31;68055;51.978;5.658;2023-11-25T07:40:10;7.1;71.5
78731;SHT31;68055;51.978;5.658;2023-11-25T07:42:44;7.1;71.3
78731;SHT31;68055;51.978;5.658;2023-11-25T07:45:15;7.1;71.3
78731;SHT31;68055;51.978;5.658;2023-11-25T07:47:44;7.1;71.4
78731;SHT31;68055;51.978;5.658;2023-11-25T07:50:13;7.1;71.3
78731;SHT31;68055;51.978;5.658;2023-11-25T07:52:42;7.0;71.1
78731;SHT31;68055;51.978;5.658;2023-11-25T07:55:13;7.0;71.3
78731;SHT31;68055;51.978;5.658;2023-11-25T07:57:43;7.0;71.4
78731;SHT31;68055;51.978;5.658;2023-11-25T08:00:14;7.0;71.3
78731;SHT31;68055;51.978;5.658;2023-11-25T08:02:46;7.0;71.5
78731;SHT31;68055;51.978;5.658;2023-11-25T08:05:15;7.0;71.4
78731;SHT31;68055;51.978;5.658;2023-11-25T08:07:51;7.0;71.4
78731;SHT31;68055;51.978;5.658;2023-11-25T08:10:20;7.0;71.7
78731;SHT31;68055;51.978;5.658;2023-11-25T08:12:50;7.0;72.1
78731;SHT31;68055;51.978;5.658;2023-11-25T08:15:18;7.0;72.6
78731;SHT31;68055;51.978;5.658;2023-11-25T08:17:47;7.1;73.0
78731;SHT31;68055;51.978;5.658;2023-11-25T08:20:18;7.1;73.1
78731;SHT31;68055;51.978;5.658;2023-11-25T08:22:49;7.2;73.2
78731;SHT31;68055;51.978;5.658;2023-11-25T08:25:17;7.2;73.0
78731;SHT31;68055;51.978;5.658;2023-11-25T08:27:46;7.2;72.4
78731;SHT31;68055;51.978;5.658;2023-11-25T08:30:18;7.2;72.5
78731;SHT31;68055;51.978;5.658;2023-11-25T08:32:47;7.2;72.8
78731;SHT31;68055;51.978;5.658;2023-11-25T08:35:16;7.2;72.6
78731;SHT31;68055;51.978;5.658;2023-11-25T08:37:44;7.2;72.7
78731;SHT31;68055;51.978;5.658;2023-11-25T08:40:14;7.2;72.9
78731;SHT31;68055;51.978;5.658;2023-11-25T08:42:45;7.2;73.0
78731;SHT31;68055;51.978;5.658;2023-11-25T08:45:16;7.2;73.3
78731;SHT31;68055;51.978;5.658;2023-11-25T08:47:47;7.2;73.3
78731;SHT31;68055;51.978;5.658;2023-11-25T08:50:16;7.2;73.7
78731;SHT31;68055;51.978;5.658;2023-11-25T08:52:45;7.2;73.9
78731;SHT31;68055;51.978;5.658;2023-11-25T08:55:15;7.2;74.1
78731;SHT31;68055;51.978;5.658;2023-11-25T08:57:46;7.3;74.6
78731;SHT31;68055;51.978;5.658;2023-11-25T09:00:16;7.3;75.3
78731;SHT31;68055;51.978;5.658;2023-11-25T09:02:49;7.4;75.3
78731;SHT31;68055;51.978;5.658;2023-11-25T09:05:20;7.4;74.6
78731;SHT31;68055;51.978;5.658;2023-11-25T09:07:52;7.5;74.6
78731;SHT31;68055;51.978;5.658;2023-11-25T09:10:22;7.5;74.4
78731;SHT31;68055;51.978;5.658;2023-11-25T09:12:51;7.6;73.9
78731;SHT31;68055;51.978;5.658;2023-11-25T09:15:20;7.6;74.0
78731;SHT31;68055;51.978;5.658;2023-11-25T09:17:49;7.6;73.7
78731;SHT31;68055;51.978;5.658;2023-11-25T09:20:18;7.6;73.2
78731;SHT31;68055;51.978;5.658;2023-11-25T09:22:48;7.6;73.3
78731;SHT31;68055;51.978;5.658;2023-11-25T09:25:17;7.7;73.2
78731;SHT31;68055;51.978;5.658;2023-11-25T09:27:47;7.7;73.5
78731;SHT31;68055;51.978;5.658;2023-11-25T09:30:16;7.7;73.6
78731;SHT31;68055;51.978;5.658;2023-11-25T09:32:45;7.7;73.8
78731;SHT31;68055;51.978;5.658;2023-11-25T09:35:14;7.7;73.7
78731;SHT31;68055;51.978;5.658;2023-11-25T09:37:43;7.7;73.7
78731;SHT31;68055;51.978;5.658;2023-11-25T09:40:14;7.8;73.7
78731;SHT31;68055;51.978;5.658;2023-11-25T09:42:46;7.8;73.5
78731;SHT31;68055;51.978;5.658;2023-11-25T09:45:15;7.8;72.9
78731;SHT31;68055;51.978;5.658;2023-11-25T09:47:48;7.9;72.4
78731;SHT31;68055;51.978;5.658;2023-11-25T09:50:16;7.9;72.3
78731;SHT31;68055;51.978;5.658;2023-11-25T09:52:51;7.9;72.5
78731;SHT31;68055;51.978;5.658;2023-11-25T09:55:22;7.9;72.8
78731;SHT31;68055;51.978;5.658;2023-11-25T09:58:04;7.9;72.6
78731;SHT31;68055;51.978;5.658;2023-11-25T10:00:27;7.9;72.7
78731;SHT31;68055;51.978;5.658;2023-11-25T10:02:57;7.9;72.9
78731;SHT31;68055;51.978;5.658;2023-11-25T10:05:28;7.9;72.8
78731;SHT31;68055;51.978;5.658;2023-11-25T10:07:57;7.9;73.4
78731;SHT31;68055;51.978;5.658;2023-11-25T10:10:26;8.0;73.5
78731;SHT31;68055;51.978;5.658;2023-11-25T10:12:55;8.0;73.9
78731;SHT31;68055;51.978;5.658;2023-11-25T10:15:24;8.0;74.2
78731;SHT31;68055;51.978;5.658;2023-11-25T10:17:55;8.1;75.4
78731;SHT31;68055;51.978;5.658;2023-11-25T10:20:24;8.1;75.8
78731;SHT31;68055;51.978;5.658;2023-11-25T10:22:54;8.2;75.4
78731;SHT31;68055;51.978;5.658;2023-11-25T10:25:26;8.3;74.7
78731;SHT31;68055;51.978;5.658;2023-11-25T10:27:56;8.4;74.4
78731;SHT31;68055;51.978;5.658;2023-11-25T10:30:26;8.4;73.9
78731;SHT31;68055;51.978;5.658;2023-11-25T10:32:55;8.4;73.6
78731;SHT31;68055;51.978;5.658;2023-11-25T10:35:27;8.5;73.5
78731;SHT31;68055;51.978;5.658;2023-11-25T10:37:56;8.5;73.6
78731;SHT31;68055;51.978;5.658;2023-11-25T10:40:25;8.5;73.4
78731;SHT31;68055;51.978;5.658;2023-11-25T10:42:54;8.5;73.6
78731;SHT31;68055;51.978;5.658;2023-11-25T10:45:23;8.5;73.5
78731;SHT31;68055;51.978;5.658;2023-11-25T10:47:54;8.6;73.0
78731;SHT31;68055;51.978;5.658;2023-11-25T10:50:24;8.6;73.1
78731;SHT31;68055;51.978;5.658;2023-11-25T10:52:56;8.6;73.1
78731;SHT31;68055;51.978;5.658;2023-11-25T10:55:27;8.6;73.5
78731;SHT31;68055;51.978;5.658;2023-11-25T10:57:58;8.6;73.6
78731;SHT31;68055;51.978;5.658;2023-11-25T11:00:29;8.7;73.7
78731;SHT31;68055;51.978;5.658;2023-11-25T11:03:02;8.8;72.6
78731;SHT31;68055;51.978;5.658;2023-11-25T11:05:44;8.8;72.7
78731;SHT31;68055;51.978;5.658;2023-11-25T11:08:16;8.9;72.3
78731;SHT31;68055;51.978;5.658;2023-11-25T11:10:53;9.0;70.0
78731;SHT31;68055;51.978;5.658;2023-11-25T11:13:27;9.0;70.0
78731;SHT31;68055;51.978;5.658;2023-11-25T11:15:58;9.1;69.5
78731;SHT31;68055;51.978;5.658;2023-11-25T11:18:32;9.1;69.2
78731;SHT31;68055;51.978;5.658;2023-11-25T11:21:06;9.2;69.4
78731;SHT31;68055;51.978;5.658;2023-11-25T11:23:35;9.2;69.1
78731;SHT31;68055;51.978;5.658;2023-11-25T11:26:18;9.3;68.8
78731;SHT31;68055;51.978;5.658;2023-11-25T11:29:00;9.3;68.3
78731;SHT31;68055;51.978;5.658;2023-11-25T11:32:06;9.3;68.4
78731;SHT31;68055;51.978;5.658;2023-11-25T11:34:36;9.3;68.2
78731;SHT31;68055;51.978;5.658;2023-11-25T11:37:06;9.3;69.4
78731;SHT31;68055;51.978;5.658;2023-11-25T11:39:43;9.3;68.6
78731;SHT31;68055;51.978;5.658;2023-11-25T11:42:27;9.4;68.4
78731;SHT31;68055;51.978;5.658;2023-11-25T11:45:01;9.4;68.3
78731;SHT31;68055;51.978;5.658;2023-11-25T11:47:39;9.4;68.0
78731;SHT31;68055;51.978;5.658;2023-11-25T11:50:09;9.4;67.4
78731;SHT31;68055;51.978;5.658;2023-11-25T11:52:45;9.4;67.6
78731;SHT31;68055;51.978;5.658;2023-11-25T11:55:38;9.4;67.5
78731;SHT31;68055;51.978;5.658;2023-11-25T11:58:08;9.4;67.5
78731;SHT31;68055;51.978;5.658;2023-11-25T12:00:38;9.4;68.3
78731;SHT31;68055;51.978;5.658;2023-11-25T12:03:09;9.5;68.0
78731;SHT31;68055;51.978;5.658;2023-11-25T12:05:38;9.5;68.5
78731;SHT31;68055;51.978;5.658;2023-11-25T12:08:06;9.5;68.0
78731;SHT31;68055;51.978;5.658;2023-11-25T12:10:36;9.5;67.7
78731;SHT31;68055;51.978;5.658;2023-11-25T12:13:05;9.6;68.3
78731;SHT31;68055;51.978;5.658;2023-11-25T12:15:35;9.6;67.9
78731;SHT31;68055;51.978;5.658;2023-11-25T12:18:04;9.7;67.8
78731;SHT31;68055;51.978;5.658;2023-11-25T12:20:35;9.7;67.5
78731;SHT31;68055;51.978;5.658;2023-11-25T12:23:06;9.7;66.9
78731;SHT31;68055;51.978;5.658;2023-11-25T12:25:36;9.8;67.6
78731;SHT31;68055;51.978;5.658;2023-11-25T12:28:10;9.8;67.8
78731;SHT31;68055;51.978;5.658;2023-11-25T12:30:41;9.9;67.7
78731;SHT31;68055;51.978;5.658;2023-11-25T12:33:10;9.9;67.5
78731;SHT31;68055;51.978;5.658;2023-11-25T12:35:40;10.0;67.2
78731;SHT31;68055;51.978;5.658;2023-11-25T12:38:10;10.0;67.2
78731;SHT31;68055;51.978;5.658;2023-11-25T12:40:39;10.1;66.7
78731;SHT31;68055;51.978;5.658;2023-11-25T12:43:10;10.1;66.8
78731;SHT31;68055;51.978;5.658;2023-11-25T12:45:39;10.2;67.0
78731;SHT31;68055;51.978;5.658;2023-11-25T12:48:10;10.3;66.0
78731;SHT31;68055;51.978;5.658;2023-11-25T12:51:00;10.3;65.4
78731;SHT31;68055;51.978;5.658;2023-11-25T12:53:31;10.4;64.9
78731;SHT31;68055;51.978;5.658;2023-11-25T12:56:01;10.4;65.3
78731;SHT31;68055;51.978;5.658;2023-11-25T12:58:30;10.4;65.1
78731;SHT31;68055;51.978;5.658;2023-11-25T13:00:58;10.4;64.8
78731;SHT31;68055;51.978;5.658;2023-11-25T13:03:29;10.5;64.3
78731;SHT31;68055;51.978;5.658;2023-11-25T13:05:59;10.5;64.4
78731;SHT31;68055;51.978;5.658;2023-11-25T13:08:31;10.5;64.6
78731;SHT31;68055;51.978;5.658;2023-11-25T13:11:04;10.5;64.1
78731;SHT31;68055;51.978;5.658;2023-11-25T13:13:35;10.6;64.8
78731;SHT31;68055;51.978;5.658;2023-11-25T13:16:05;10.6;64.4
78731;SHT31;68055;51.978;5.658;2023-11-25T13:18:37;10.6;64.7
78731;SHT31;68055;51.978;5.658;2023-11-25T13:21:05;10.7;64.5
78731;SHT31;68055;51.978;5.658;2023-11-25T13:23:34;10.7;64.8
78731;SHT31;68055;51.978;5.658;2023-11-25T13:26:04;10.8;64.3
78731;SHT31;68055;51.978;5.658;2023-11-25T13:28:34;10.8;64.4
78731;SHT31;68055;51.978;5.658;2023-11-25T13:31:03;10.8;65.0
78731;SHT31;68055;51.978;5.658;2023-11-25T13:33:32;10.8;65.3
78731;SHT31;68055;51.978;5.658;2023-11-25T13:36:02;10.8;64.8
78731;SHT31;68055;51.978;5.658;2023-11-25T13:38:33;10.8;64.7
78731;SHT31;68055;51.978;5.658;2023-11-25T13:41:01;10.7;65.2
78731;SHT31;68055;51.978;5.658;2023-11-25T13:43:30;10.7;65.4
78731;SHT31;68055;51.978;5.658;2023-11-25T13:45:59;10.6;65.0
78731;SHT31;68055;51.978;5.658;2023-11-25T13:48:30;10.6;65.6
78731;SHT31;68055;51.978;5.658;2023-11-25T13:50:58;10.6;65.2
78731;SHT31;68055;51.978;5.658;2023-11-25T13:53:29;10.5;65.3
78731;SHT31;68055;51.978;5.658;2023-11-25T13:55:58;10.5;65.0
78731;SHT31;68055;51.978;5.658;2023-11-25T13:58:27;10.5;65.0
78731;SHT31;68055;51.978;5.658;2023-11-25T14:00:56;10.4;65.6
78731;SHT31;68055;51.978;5.658;2023-11-25T14:03:26;10.4;65.4
78731;SHT31;68055;51.978;5.658;2023-11-25T14:05:56;10.4;65.8
78731;SHT31;68055;51.978;5.658;2023-11-25T14:08:25;10.4;66.0
78731;SHT31;68055;51.978;5.658;2023-11-25T14:10:55;10.4;66.6
78731;SHT31;68055;51.978;5.658;2023-11-25T14:13:25;10.3;66.0
78731;SHT31;68055;51.978;5.658;2023-11-25T14:15:55;10.2;66.5
78731;SHT31;68055;51.978;5.658;2023-11-25T14:18:25;10.1;67.0
78731;SHT31;68055;51.978;5.658;2023-11-25T14:20:55;10.1;67.3
78731;SHT31;68055;51.978;5.658;2023-11-25T14:23:24;10.0;68.0
78731;SHT31;68055;51.978;5.658;2023-11-25T14:25:53;9.9;68.7
78731;SHT31;68055;51.978;5.658;2023-11-25T14:28:22;9.9;68.8
78731;SHT31;68055;51.978;5.658;2023-11-25T14:30:50;9.9;68.9
78731;SHT31;68055;51.978;5.658;2023-11-25T14:33:19;9.8;69.4
78731;SHT31;68055;51.978;5.658;2023-11-25T14:35:47;9.8;69.3
78731;SHT31;68055;51.978;5.658;2023-11-25T14:38:16;9.8;69.3
78731;SHT31;68055;51.978;5.658;2023-11-25T14:40:44;9.8;69.3
78731;SHT31;68055;51.978;5.658;2023-11-25T14:43:15;9.8;69.1
78731;SHT31;68055;51.978;5.658;2023-11-25T14:45:44;9.9;69.1
78731;SHT31;68055;51.978;5.658;2023-11-25T14:48:14;9.9;68.6
78731;SHT31;68055;51.978;5.658;2023-11-25T14:50:43;9.9;68.7
78731;SHT31;68055;51.978;5.658;2023-11-25T14:53:11;9.9;68.9
78731;SHT31;68055;51.978;5.658;2023-11-25T14:55:43;9.9;68.3
78731;SHT31;68055;51.978;5.658;2023-11-25T14:58:13;9.9;68.4
78731;SHT31;68055;51.978;5.658;2023-11-25T15:00:41;9.9;68.1
78731;SHT31;68055;51.978;5.658;2023-11-25T15:03:10;10.0;67.6
78731;SHT31;68055;51.978;5.658;2023-11-25T15:05:39;10.0;67.7
78731;SHT31;68055;51.978;5.658;2023-11-25T15:08:07;10.0;67.9
78731;SHT31;68055;51.978;5.658;2023-11-25T15:10:36;10.0;67.7
78731;SHT31;68055;51.978;5.658;2023-11-25T15:13:07;10.0;67.6
78731;SHT31;68055;51.978;5.658;2023-11-25T15:15:37;10.0;67.8
78731;SHT31;68055;51.978;5.658;2023-11-25T15:18:07;9.9;67.5
78731;SHT31;68055;51.978;5.658;2023-11-25T15:20:36;9.9;68.0
78731;SHT31;68055;51.978;5.658;2023-11-25T15:23:05;9.9;67.6
78731;SHT31;68055;51.978;5.658;2023-11-25T15:25:35;9.9;67.8
78731;SHT31;68055;51.978;5.658;2023-11-25T15:28:04;9.9;67.9
78731;SHT31;68055;51.978;5.658;2023-11-25T15:30:34;9.9;67.6
78731;SHT31;68055;51.978;5.658;2023-11-25T15:33:02;9.9;67.4
78731;SHT31;68055;51.978;5.658;2023-11-25T15:35:31;9.8;67.4
78731;SHT31;68055;51.978;5.658;2023-11-25T15:38:02;9.8;67.3
78731;SHT31;68055;51.978;5.658;2023-11-25T15:40:31;9.8;67.2
78731;SHT31;68055;51.978;5.658;2023-11-25T15:42:59;9.8;67.4
78731;SHT31;68055;51.978;5.658;2023-11-25T15:45:28;9.7;67.3
78731;SHT31;68055;51.978;5.658;2023-11-25T15:47:58;9.7;67.4
78731;SHT31;68055;51.978;5.658;2023-11-25T15:50:28;9.7;67.3
78731;SHT31;68055;51.978;5.658;2023-11-25T15:52:56;9.6;67.2
78731;SHT31;68055;51.978;5.658;2023-11-25T15:55:25;9.6;67.1
78731;SHT31;68055;51.978;5.658;2023-11-25T15:57:55;9.6;67.3
78731;SHT31;68055;51.978;5.658;2023-11-25T16:00:24;9.6;67.4
78731;SHT31;68055;51.978;5.658;2023-11-25T16:02:54;9.6;67.8
78731;SHT31;68055;51.978;5.658;2023-11-25T16:05:23;9.5;67.6
78731;SHT31;68055;51.978;5.658;2023-11-25T16:07:53;9.5;67.8
78731;SHT31;68055;51.978;5.658;2023-11-25T16:10:23;9.5;67.7
78731;SHT31;68055;51.978;5.658;2023-11-25T16:12:52;9.5;67.9
78731;SHT31;68055;51.978;5.658;2023-11-25T16:15:20;9.4;67.7
78731;SHT31;68055;51.978;5.658;2023-11-25T16:17:49;9.4;68.1
78731;SHT31;68055;51.978;5.658;2023-11-25T16:20:18;9.4;67.8
78731;SHT31;68055;51.978;5.658;2023-11-25T16:22:47;9.4;68.0
78731;SHT31;68055;51.978;5.658;2023-11-25T16:25:18;9.4;68.3
78731;SHT31;68055;51.978;5.658;2023-11-25T16:27:46;9.3;68.0
78731;SHT31;68055;51.978;5.658;2023-11-25T16:30:15;9.3;67.8
78731;SHT31;68055;51.978;5.658;2023-11-25T16:32:46;9.3;67.8
78731;SHT31;68055;51.978;5.658;2023-11-25T16:35:15;9.3;67.8